Terminal Aerodrome Forecast
Issued by NWS

Home | Current Version | Previous Version | Text Only | Print | Product List | Glossary On
Versions: 1 2 3 4 5 6 7 8 9 10 11 12 13 14 15 16
000
FTUS44 KTSA 262300
TAFBVO
TAF
KBVO 262320Z 2700/2724 35009G18KT P6SM SCT100 SCT250
     FM270200 03012KT P6SM SCT035 BKN120
     FM271200 05010KT P6SM SCT025 OVC100=

USA.gov is the U.S. government's official web portal to all federal, state and local government web resources and services.